createdAt,value
2023-04-21T00:01:49.240Z,13.50
2023-04-21T00:04:17.989Z,13.50
2023-04-21T00:06:45.622Z,13.50
2023-04-21T00:09:12.614Z,13.40
2023-04-21T00:11:39.468Z,13.50
2023-04-21T00:14:06.391Z,13.40
2023-04-21T00:16:33.440Z,13.40
2023-04-21T00:19:00.607Z,13.40
2023-04-21T00:21:27.479Z,13.40
2023-04-21T00:23:54.427Z,13.40
2023-04-21T00:26:21.345Z,13.30
2023-04-21T00:28:50.211Z,13.30
2023-04-21T00:31:17.111Z,13.30
2023-04-21T00:33:44.031Z,13.30
2023-04-21T00:36:10.906Z,13.30
2023-04-21T00:38:37.850Z,13.30
2023-04-21T00:41:04.841Z,13.30
2023-04-21T00:43:31.723Z,13.30
2023-04-21T00:45:58.581Z,13.20
2023-04-21T00:48:25.541Z,13.20
2023-04-21T00:50:52.391Z,13.20
2023-04-21T00:53:20.525Z,13.20
2023-04-21T00:55:47.532Z,13.20
2023-04-21T00:58:14.485Z,13.20
2023-04-21T01:00:42.985Z,13.20
2023-04-21T01:03:10.048Z,13.20
2023-04-21T01:05:37.088Z,13.20
2023-04-21T01:08:04.643Z,13.20
2023-04-21T01:10:31.563Z,13.20
2023-04-21T01:12:58.361Z,13.10
2023-04-21T01:15:27.381Z,13.10
2023-04-21T01:17:54.379Z,13.10
2023-04-21T01:20:21.415Z,13.10
2023-04-21T01:22:49.935Z,13.10
2023-04-21T01:25:18.494Z,13.10
2023-04-21T01:27:45.478Z,13.10
2023-04-21T01:30:12.956Z,13.10
2023-04-21T01:32:39.858Z,13.10
2023-04-21T01:35:08.520Z,13.10
2023-04-21T01:37:37.919Z,13.10
2023-04-21T01:40:07.683Z,13.10
2023-04-21T01:42:36.392Z,13.10
2023-04-21T01:45:03.890Z,13.10
2023-04-21T01:47:30.915Z,13.10
2023-04-21T01:49:57.770Z,13.10
2023-04-21T01:52:24.675Z,13.10
2023-04-21T01:54:53.657Z,13.20
2023-04-21T01:57:21.074Z,13.10
2023-04-21T01:59:49.550Z,13.10
2023-04-21T02:02:16.555Z,13.10
2023-04-21T02:04:43.518Z,13.10
2023-04-21T02:07:10.353Z,13.10
2023-04-21T02:09:37.205Z,13.10
2023-04-21T02:12:04.297Z,13.00
2023-04-21T02:14:31.319Z,13.10
2023-04-21T02:16:58.229Z,13.10
2023-04-21T02:19:25.256Z,13.10
2023-04-21T02:21:54.829Z,13.10
2023-04-21T02:24:22.369Z,13.10
2023-04-21T02:26:49.238Z,13.10
2023-04-21T02:29:16.216Z,13.10
2023-04-21T02:31:56.564Z,13.10
2023-04-21T02:34:26.364Z,13.10
2023-04-21T02:36:53.269Z,13.00
2023-04-21T02:39:20.317Z,13.00
2023-04-21T02:41:47.235Z,13.00
2023-04-21T02:44:14.041Z,13.00
2023-04-21T02:46:41.855Z,13.00
2023-04-21T02:49:09.634Z,13.00
2023-04-21T02:51:36.790Z,13.10
2023-04-21T02:54:03.661Z,13.00
2023-04-21T02:56:31.763Z,13.10
2023-04-21T02:58:58.616Z,13.00
2023-04-21T03:01:25.557Z,13.00
2023-04-21T03:03:52.644Z,13.10
2023-04-21T03:06:19.558Z,13.00
2023-04-21T03:08:46.577Z,13.00
2023-04-21T03:11:13.485Z,13.10
2023-04-21T03:13:40.445Z,13.00
2023-04-21T03:16:07.493Z,13.00
2023-04-21T03:18:37.413Z,13.00
2023-04-21T03:21:04.851Z,13.00
2023-04-21T03:23:31.669Z,13.00
2023-04-21T03:25:58.559Z,13.00
2023-04-21T03:28:25.505Z,13.00
2023-04-21T03:30:52.398Z,13.00
2023-04-21T03:33:19.296Z,12.90
2023-04-21T03:35:46.072Z,12.90
2023-04-21T03:38:12.894Z,12.90
2023-04-21T03:40:39.777Z,12.90
2023-04-21T03:43:06.802Z,12.90
2023-04-21T03:45:35.994Z,12.90
2023-04-21T03:48:03.817Z,12.80
2023-04-21T03:50:31.131Z,12.80
2023-04-21T03:52:58.033Z,12.80
2023-04-21T03:55:25.015Z,12.80
2023-04-21T03:57:51.889Z,12.80
2023-04-21T04:00:18.898Z,12.80
2023-04-21T04:02:45.890Z,12.80
2023-04-21T04:05:13.039Z,12.80
2023-04-21T04:07:40.017Z,12.80
2023-04-21T04:10:06.972Z,12.80
2023-04-21T04:12:33.879Z,12.70
2023-04-21T04:15:01.280Z,12.80
2023-04-21T04:17:28.152Z,12.80
2023-04-21T04:19:54.987Z,12.80
2023-04-21T04:22:21.758Z,12.70
2023-04-21T04:24:48.734Z,12.70
2023-04-21T04:27:15.632Z,12.70
2023-04-21T04:29:43.961Z,12.80
2023-04-21T04:32:11.253Z,12.80
2023-04-21T04:34:38.642Z,12.80
2023-04-21T04:37:06.535Z,12.80
2023-04-21T04:39:33.539Z,12.80
2023-04-21T04:42:01.404Z,12.80
2023-04-21T04:44:28.467Z,12.80
2023-04-21T04:46:55.783Z,12.80
2023-04-21T04:49:24.179Z,12.80
2023-04-21T04:51:51.269Z,12.80
2023-04-21T04:54:18.397Z,12.70
2023-04-21T04:56:46.125Z,12.80
2023-04-21T04:59:12.997Z,12.70
2023-04-21T05:01:41.874Z,12.80
2023-04-21T05:04:09.228Z,12.80
2023-04-21T05:06:36.202Z,12.80
2023-04-21T05:09:04.937Z,12.80
2023-04-21T05:11:32.015Z,12.80
2023-04-21T05:13:58.962Z,12.80
2023-04-21T05:16:25.876Z,12.70
2023-04-21T05:18:55.323Z,12.70
2023-04-21T05:21:29.566Z,12.80
2023-04-21T05:23:57.192Z,12.80
2023-04-21T05:26:28.700Z,12.80
2023-04-21T05:28:56.739Z,12.70
2023-04-21T05:31:24.776Z,12.80
2023-04-21T05:33:52.049Z,12.70
2023-04-21T05:36:20.347Z,12.80
2023-04-21T05:38:47.438Z,12.80
2023-04-21T05:41:14.346Z,12.80
2023-04-21T05:43:41.150Z,12.80
2023-04-21T05:46:11.499Z,12.80
2023-04-21T05:48:38.387Z,12.80
2023-04-21T05:51:12.888Z,12.90
2023-04-21T05:53:40.496Z,12.90
2023-04-21T05:56:09.750Z,12.90
2023-04-21T05:58:37.001Z,12.90
2023-04-21T06:01:05.138Z,12.90
2023-04-21T06:03:33.222Z,12.90
2023-04-21T06:06:02.487Z,13.00
2023-04-21T06:08:29.457Z,13.00
2023-04-21T06:10:56.449Z,13.00
2023-04-21T06:13:23.375Z,13.00
2023-04-21T06:15:50.394Z,13.00
2023-04-21T06:18:17.335Z,13.00
2023-04-21T06:20:54.191Z,13.00
2023-04-21T06:23:21.586Z,13.10
2023-04-21T06:25:59.322Z,13.10
2023-04-21T06:28:26.245Z,13.10
2023-04-21T06:30:53.064Z,13.20
2023-04-21T06:33:19.953Z,13.10
2023-04-21T06:35:46.830Z,13.20
2023-04-21T06:38:13.691Z,13.20
2023-04-21T06:40:40.711Z,13.20
2023-04-21T06:43:07.610Z,13.30
2023-04-21T06:45:34.470Z,13.30
2023-04-21T06:48:01.514Z,13.40
2023-04-21T06:50:28.322Z,13.40
2023-04-21T06:52:55.118Z,13.40
2023-04-21T06:55:22.117Z,13.50
2023-04-21T06:57:48.986Z,13.50
2023-04-21T07:00:16.227Z,13.50
2023-04-21T07:02:43.141Z,13.60
2023-04-21T07:05:10.181Z,13.70
2023-04-21T07:07:37.033Z,13.70
2023-04-21T07:10:04.084Z,13.80
2023-04-21T07:12:30.915Z,13.90
2023-04-21T07:14:57.755Z,14.00
2023-04-21T07:17:24.670Z,14.10
2023-04-21T07:19:51.481Z,14.10
2023-04-21T07:22:18.331Z,14.20
2023-04-21T07:24:45.580Z,14.30
2023-04-21T07:27:12.518Z,14.40
2023-04-21T07:29:39.383Z,14.40
2023-04-21T07:32:06.312Z,14.50
2023-04-21T07:34:33.157Z,14.50
2023-04-21T07:36:59.961Z,14.60
2023-04-21T07:39:26.876Z,14.60
2023-04-21T07:41:54.009Z,14.60
2023-04-21T07:44:20.898Z,14.70
2023-04-21T07:46:47.861Z,14.70
2023-04-21T07:49:14.775Z,14.80
2023-04-21T07:51:41.643Z,14.80
2023-04-21T07:54:08.487Z,14.80
2023-04-21T07:56:35.388Z,14.80
2023-04-21T07:59:02.228Z,14.90
2023-04-21T08:01:28.997Z,14.90
2023-04-21T08:03:55.944Z,14.90
2023-04-21T08:06:22.920Z,15.00
2023-04-21T08:08:50.272Z,15.10
2023-04-21T08:11:17.262Z,15.10
2023-04-21T08:13:44.057Z,15.20
2023-04-21T08:16:10.993Z,15.30
2023-04-21T08:18:37.829Z,15.30
2023-04-21T08:21:04.882Z,15.30
2023-04-21T08:23:32.456Z,15.40
2023-04-21T08:25:59.606Z,15.40
2023-04-21T08:28:26.453Z,15.50
2023-04-21T08:30:53.318Z,15.50
2023-04-21T08:33:20.343Z,15.70
2023-04-21T08:36:01.374Z,15.70
2023-04-21T08:38:31.018Z,15.80
2023-04-21T08:41:00.027Z,15.80
2023-04-21T08:43:28.379Z,15.80
2023-04-21T08:45:55.895Z,15.90
2023-04-21T08:48:23.856Z,15.90
2023-04-21T08:50:51.624Z,15.90
2023-04-21T08:53:18.720Z,15.90
2023-04-21T08:55:53.688Z,15.90
2023-04-21T08:58:26.649Z,16.00
2023-04-21T09:00:53.550Z,16.00
2023-04-21T09:03:26.519Z,16.00
2023-04-21T09:06:14.054Z,16.00
2023-04-21T09:08:53.310Z,16.10
2023-04-21T09:11:20.129Z,16.10
2023-04-21T09:13:46.885Z,16.20
2023-04-21T09:16:22.216Z,16.20
2023-04-21T09:18:50.284Z,16.20
2023-04-21T09:21:19.906Z,16.30
2023-04-21T09:23:49.699Z,16.40
2023-04-21T09:26:19.050Z,16.50
2023-04-21T09:28:47.909Z,16.60
2023-04-21T09:31:19.957Z,16.70
2023-04-21T09:34:10.047Z,16.90
2023-04-21T09:36:37.276Z,17.00
2023-04-21T09:41:34.472Z,17.10
2023-04-21T09:44:01.805Z,17.10
2023-04-21T09:46:32.245Z,17.20
2023-04-21T09:49:01.585Z,17.20
2023-04-21T09:51:55.509Z,17.30
2023-04-21T09:56:52.852Z,17.40
2023-04-21T09:59:27.728Z,17.50
2023-04-21T10:01:57.771Z,17.50
2023-04-21T10:04:26.432Z,17.50
2023-04-21T10:06:54.687Z,17.50
2023-04-21T10:09:24.366Z,17.60
2023-04-21T10:11:53.241Z,17.60
2023-04-21T10:14:20.576Z,17.70
2023-04-21T10:17:16.656Z,17.90
2023-04-21T10:19:53.372Z,18.00
2023-04-21T10:22:31.480Z,18.10
2023-04-21T10:25:00.229Z,18.20
2023-04-21T10:27:41.356Z,18.30
2023-04-21T10:30:22.725Z,18.30
2023-04-21T10:33:01.938Z,18.40
2023-04-21T10:36:02.025Z,18.50
2023-04-21T10:38:58.769Z,18.60
2023-04-21T10:41:33.956Z,18.70
2023-04-21T10:44:12.515Z,18.80
2023-04-21T10:46:47.091Z,18.90
2023-04-21T10:49:30.658Z,18.90
2023-04-21T10:52:02.336Z,19.00
2023-04-21T10:54:41.626Z,19.00
2023-04-21T10:57:11.208Z,19.00
2023-04-21T10:59:38.311Z,19.00
2023-04-21T11:02:13.353Z,19.00
2023-04-21T11:04:45.101Z,19.00
2023-04-21T11:07:14.566Z,19.00
2023-04-21T11:09:42.887Z,19.00
2023-04-21T11:12:11.975Z,19.00
2023-04-21T11:14:40.822Z,19.10
2023-04-21T11:17:16.377Z,19.10
2023-04-21T11:19:54.088Z,19.10
2023-04-21T11:22:26.435Z,19.10
2023-04-21T11:24:57.913Z,19.10
2023-04-21T11:27:27.312Z,19.10
2023-04-21T11:29:54.238Z,19.10
2023-04-21T11:32:21.348Z,19.00
2023-04-21T11:34:48.396Z,19.00
2023-04-21T11:37:23.984Z,18.90
2023-04-21T11:39:57.751Z,18.80
2023-04-21T11:42:24.772Z,18.80
2023-04-21T11:44:54.950Z,18.80
2023-04-21T11:47:27.505Z,18.80
2023-04-21T11:49:57.134Z,18.90
2023-04-21T11:52:29.570Z,19.00
2023-04-21T11:54:59.207Z,19.10
2023-04-21T11:57:27.887Z,19.20
2023-04-21T11:59:58.050Z,19.30
2023-04-21T12:02:27.603Z,19.50
2023-04-21T12:05:24.218Z,19.70
2023-04-21T12:07:53.784Z,19.80
2023-04-21T12:10:21.604Z,20.00
2023-04-21T12:12:48.869Z,20.10
2023-04-21T12:15:22.819Z,20.20
2023-04-21T12:17:51.657Z,20.20
2023-04-21T12:20:21.018Z,20.30
2023-04-21T12:22:48.895Z,20.40
2023-04-21T12:25:15.986Z,20.40
2023-04-21T12:27:54.116Z,20.50
2023-04-21T12:30:21.774Z,20.60
2023-04-21T12:32:49.020Z,20.70
2023-04-21T12:35:16.142Z,20.80
2023-04-21T12:37:44.887Z,20.90
2023-04-21T12:40:11.872Z,21.00
2023-04-21T12:42:38.786Z,21.20
2023-04-21T12:45:06.681Z,21.20
2023-04-21T12:47:34.196Z,21.20
2023-04-21T12:50:01.299Z,21.20
2023-04-21T12:52:28.331Z,21.20
2023-04-21T12:54:55.286Z,21.00
2023-04-21T12:57:22.255Z,20.90
2023-04-21T12:59:49.159Z,20.90
2023-04-21T13:02:16.329Z,20.80
2023-04-21T13:04:43.425Z,20.70
2023-04-21T13:07:10.546Z,20.60
2023-04-21T13:09:37.531Z,20.60
2023-04-21T13:12:04.663Z,20.50
2023-04-21T13:14:31.744Z,20.40
2023-04-21T13:16:59.182Z,20.40
2023-04-21T13:19:26.327Z,20.40
2023-04-21T13:21:54.378Z,20.40
2023-04-21T13:24:21.822Z,20.40
2023-04-21T13:26:48.909Z,20.40
2023-04-21T13:29:16.149Z,20.40
2023-04-21T13:31:43.201Z,20.40
2023-04-21T13:34:10.080Z,20.40
2023-04-21T13:36:37.012Z,20.30
2023-04-21T13:39:05.499Z,20.30
2023-04-21T13:41:32.454Z,20.30
2023-04-21T13:43:59.283Z,20.30
2023-04-21T13:46:26.303Z,20.40
2023-04-21T13:48:53.775Z,20.50
2023-04-21T13:51:20.912Z,20.80
2023-04-21T13:53:48.076Z,21.00
2023-04-21T13:56:15.096Z,21.30
2023-04-21T13:58:42.577Z,21.60
2023-04-21T14:01:09.640Z,22.00
2023-04-21T14:03:36.622Z,22.30
2023-04-21T14:06:03.867Z,22.70
2023-04-21T14:08:30.714Z,23.10
2023-04-21T14:10:58.330Z,23.40
2023-04-21T14:16:00.466Z,23.80
2023-04-21T14:18:27.471Z,23.80
2023-04-21T14:20:54.343Z,23.70
2023-04-21T14:23:21.144Z,23.60
2023-04-21T14:25:47.973Z,23.50
2023-04-21T14:28:14.942Z,23.30
2023-04-21T14:30:43.134Z,23.10
2023-04-21T14:33:10.348Z,22.90
2023-04-21T14:35:37.871Z,22.70
2023-04-21T14:38:04.799Z,22.70
2023-04-21T14:40:31.774Z,22.70
2023-04-21T14:42:58.877Z,23.00
2023-04-21T14:45:25.787Z,23.30
2023-04-21T14:47:52.983Z,23.40
2023-04-21T14:50:20.010Z,23.60
2023-04-21T14:52:49.335Z,23.70
2023-04-21T14:55:16.745Z,23.60
2023-04-21T14:57:43.914Z,23.50
2023-04-21T15:00:11.645Z,23.40
2023-04-21T15:02:39.609Z,23.20
2023-04-21T15:05:08.571Z,23.00
2023-04-21T15:07:36.034Z,22.90
2023-04-21T15:10:02.952Z,22.70
2023-04-21T15:12:29.928Z,22.60
2023-04-21T15:14:56.859Z,22.50
2023-04-21T15:17:24.135Z,22.30
2023-04-21T15:19:51.164Z,22.20
2023-04-21T15:22:18.114Z,22.20
2023-04-21T15:24:45.980Z,22.20
2023-04-21T15:27:12.760Z,22.20
2023-04-21T15:29:39.645Z,22.30
2023-04-21T15:32:06.518Z,22.50
2023-04-21T15:34:33.386Z,22.60
2023-04-21T15:37:00.175Z,22.90
2023-04-21T15:39:27.032Z,23.20
2023-04-21T15:41:55.066Z,23.60
2023-04-21T15:44:22.108Z,24.00
2023-04-21T15:46:49.030Z,24.20
2023-04-21T15:49:16.073Z,24.50
2023-04-21T15:51:43.208Z,24.60
2023-04-21T15:54:10.486Z,24.70
2023-04-21T15:56:37.297Z,24.80
2023-04-21T15:59:04.733Z,24.80
2023-04-21T16:01:31.738Z,24.80
2023-04-21T16:04:00.186Z,24.80
2023-04-21T16:06:30.755Z,24.70
2023-04-21T16:08:58.431Z,24.70
2023-04-21T16:11:26.656Z,24.60
2023-04-21T16:13:53.757Z,24.60
2023-04-21T16:16:20.581Z,24.70
2023-04-21T16:18:47.416Z,24.70
2023-04-21T16:21:14.324Z,24.80
2023-04-21T16:23:41.856Z,24.80
2023-04-21T16:26:09.138Z,24.80
2023-04-21T16:28:36.236Z,24.70
2023-04-21T16:31:03.392Z,24.60
2023-04-21T16:33:30.696Z,24.50
2023-04-21T16:35:57.824Z,24.40
2023-04-21T16:38:25.519Z,24.30
2023-04-21T16:40:52.520Z,24.10
2023-04-21T16:43:19.488Z,24.10
2023-04-21T16:45:46.372Z,24.10
2023-04-21T16:48:13.607Z,24.20
2023-04-21T16:50:41.867Z,24.40
2023-04-21T16:53:09.047Z,24.60
2023-04-21T16:55:36.020Z,24.80
2023-04-21T16:58:02.946Z,25.00
2023-04-21T17:00:32.547Z,25.10
2023-04-21T17:02:59.670Z,25.20
2023-04-21T17:05:27.076Z,25.20
2023-04-21T17:07:53.973Z,25.20
2023-04-21T17:10:20.932Z,25.20
2023-04-21T17:12:48.447Z,25.20
2023-04-21T17:15:15.943Z,25.30
2023-04-21T17:17:44.753Z,25.20
2023-04-21T17:20:13.554Z,25.00
2023-04-21T17:22:41.297Z,24.90
2023-04-21T17:25:09.025Z,24.60
2023-04-21T17:27:37.129Z,24.40
2023-04-21T17:30:05.421Z,24.10
2023-04-21T17:32:34.043Z,23.90
2023-04-21T17:35:01.588Z,23.70
2023-04-21T17:37:30.096Z,23.50
2023-04-21T17:39:58.676Z,23.40
2023-04-21T17:42:28.517Z,23.30
2023-04-21T17:44:55.389Z,23.30
2023-04-21T17:47:22.349Z,23.30
2023-04-21T17:49:49.210Z,23.30
2023-04-21T17:52:17.204Z,23.30
2023-04-21T17:54:44.256Z,23.30
2023-04-21T17:57:11.883Z,23.30
2023-04-21T17:59:39.583Z,23.30
2023-04-21T18:02:07.259Z,23.30
2023-04-21T18:04:34.717Z,23.40
2023-04-21T18:07:02.851Z,23.40
2023-04-21T18:09:29.886Z,23.40
2023-04-21T18:11:56.969Z,23.40
2023-04-21T18:14:24.570Z,23.30
2023-04-21T18:16:51.411Z,23.00
2023-04-21T18:19:18.500Z,22.40
2023-04-21T18:21:45.815Z,21.80
2023-04-21T18:24:12.815Z,21.20
2023-04-21T18:26:39.644Z,20.60
2023-04-21T18:29:06.588Z,20.10
2023-04-21T18:31:34.359Z,19.70
2023-04-21T18:34:01.424Z,19.30
2023-04-21T18:36:30.694Z,19.00
2023-04-21T18:38:58.566Z,18.70
2023-04-21T18:41:26.731Z,18.50
2023-04-21T18:43:53.854Z,18.30
2023-04-21T18:46:20.855Z,18.10
2023-04-21T18:48:47.694Z,18.00
2023-04-21T18:51:14.549Z,17.80
2023-04-21T18:53:43.200Z,17.70
2023-04-21T18:56:10.098Z,17.50
2023-04-21T18:58:36.999Z,17.40
2023-04-21T19:01:03.953Z,17.30
2023-04-21T19:03:31.320Z,17.10
2023-04-21T19:05:58.289Z,17.00
2023-04-21T19:08:40.642Z,16.90
2023-04-21T19:11:10.081Z,16.80
2023-04-21T19:13:37.209Z,16.60
2023-04-21T19:16:05.118Z,16.60
2023-04-21T19:18:32.201Z,16.50
2023-04-21T19:20:59.073Z,16.40
2023-04-21T19:23:25.988Z,16.40
2023-04-21T19:25:55.011Z,16.30
2023-04-21T19:28:21.948Z,16.30
2023-04-21T19:30:48.927Z,16.20
2023-04-21T19:33:16.291Z,16.10
2023-04-21T19:35:43.441Z,16.00
2023-04-21T19:38:10.696Z,16.00
2023-04-21T19:40:37.812Z,15.90
2023-04-21T19:43:04.960Z,15.80
2023-04-21T19:45:31.951Z,15.80
2023-04-21T19:48:00.665Z,15.70
2023-04-21T19:50:27.580Z,15.60
2023-04-21T19:52:54.407Z,15.60
2023-04-21T19:55:21.228Z,15.50
2023-04-21T19:57:48.065Z,15.50
2023-04-21T20:00:15.719Z,15.40
2023-04-21T20:02:42.915Z,15.40
2023-04-21T20:05:10.456Z,15.40
2023-04-21T20:07:37.699Z,15.40
2023-04-21T20:10:08.567Z,15.40
2023-04-21T20:12:35.578Z,15.40
2023-04-21T20:15:03.058Z,15.40
2023-04-21T20:17:31.235Z,15.40
2023-04-21T20:19:59.010Z,15.40
2023-04-21T20:22:26.083Z,15.40
2023-04-21T20:24:54.130Z,15.40
2023-04-21T20:27:21.119Z,15.30
2023-04-21T20:29:47.998Z,15.30
2023-04-21T20:32:15.314Z,15.20
2023-04-21T20:34:42.198Z,15.20
2023-04-21T20:37:10.732Z,15.20
2023-04-21T20:39:38.528Z,15.10
2023-04-21T20:42:12.563Z,15.10
2023-04-21T20:44:42.614Z,15.10
2023-04-21T20:47:11.155Z,15.10
2023-04-21T20:49:39.407Z,15.10
2023-04-21T20:52:06.640Z,15.10
2023-04-21T20:54:34.717Z,15.10
2023-04-21T20:57:02.190Z,15.10
2023-04-21T20:59:29.129Z,15.00
2023-04-21T21:01:56.103Z,14.90
2023-04-21T21:04:23.263Z,14.80
2023-04-21T21:06:50.262Z,14.70
2023-04-21T21:09:18.857Z,14.70
2023-04-21T21:11:46.719Z,14.60
2023-04-21T21:14:14.012Z,14.60
2023-04-21T21:16:40.947Z,14.60
2023-04-21T21:19:07.888Z,14.50
2023-04-21T21:21:34.797Z,14.60
2023-04-21T21:24:01.660Z,14.50
2023-04-21T21:26:29.305Z,14.50
2023-04-21T21:28:56.620Z,14.50
2023-04-21T21:31:23.649Z,14.60
2023-04-21T21:33:50.640Z,14.60
2023-04-21T21:36:17.470Z,14.70
2023-04-21T21:38:44.270Z,14.70
2023-04-21T21:41:12.263Z,14.70
2023-04-21T21:43:39.137Z,14.80
2023-04-21T21:46:06.339Z,14.80
2023-04-21T21:48:33.314Z,14.80
2023-04-21T21:51:00.258Z,14.90
2023-04-21T21:53:27.128Z,14.90
2023-04-21T21:55:54.096Z,14.90
2023-04-21T21:58:21.455Z,14.90
2023-04-21T22:00:51.827Z,14.90
2023-04-21T22:03:19.792Z,14.90
2023-04-21T22:05:47.363Z,14.80
2023-04-21T22:08:15.796Z,14.90
2023-04-21T22:10:43.640Z,14.80
2023-04-21T22:13:11.213Z,14.70
2023-04-21T22:15:38.745Z,14.70
2023-04-21T22:18:07.184Z,14.60
2023-04-21T22:20:34.273Z,14.50
2023-04-21T22:23:01.132Z,14.50
2023-04-21T22:25:28.033Z,14.40
2023-04-21T22:27:58.425Z,14.40
2023-04-21T22:30:25.968Z,14.40
2023-04-21T22:32:52.967Z,14.40
2023-04-21T22:35:19.973Z,14.40
2023-04-21T22:37:46.843Z,14.40
2023-04-21T22:40:13.813Z,14.40
2023-04-21T22:42:40.804Z,14.40
2023-04-21T22:45:08.316Z,14.40
2023-04-21T22:47:35.357Z,14.40
2023-04-21T22:50:02.687Z,14.40
2023-04-21T22:52:29.766Z,14.30
2023-04-21T22:54:56.625Z,14.30
2023-04-21T22:57:23.848Z,14.30
2023-04-21T22:59:50.814Z,14.30
2023-04-21T23:02:17.782Z,14.20
2023-04-21T23:04:44.638Z,14.20
2023-04-21T23:07:11.421Z,14.20
2023-04-21T23:09:38.574Z,14.10
2023-04-21T23:12:06.228Z,14.10
2023-04-21T23:14:33.194Z,14.10
2023-04-21T23:17:00.278Z,14.10
2023-04-21T23:19:27.243Z,14.00
2023-04-21T23:21:54.139Z,14.00
2023-04-21T23:24:21.018Z,14.00
2023-04-21T23:26:47.794Z,14.00
2023-04-21T23:29:14.750Z,13.90
2023-04-21T23:31:41.731Z,13.90
2023-04-21T23:34:08.624Z,13.90
2023-04-21T23:36:35.787Z,13.80
2023-04-21T23:39:02.692Z,13.80
2023-04-21T23:41:29.718Z,13.80
2023-04-21T23:43:56.644Z,13.70
2023-04-21T23:46:23.525Z,13.70
2023-04-21T23:48:50.427Z,13.70
2023-04-21T23:51:17.407Z,13.60
2023-04-21T23:53:44.509Z,13.60
2023-04-21T23:56:11.369Z,13.50
2023-04-21T23:58:38.248Z,13.50
